Flight Track Log - Related Links

Times and Time Zones

All times are in EDT time to prevent confusion due to time zone crossing. See the SWA662 flight status page for this flight to view local times or setup timezone preferences in your user account.

Time Position Orientation Groundspeed Altitude Reporting Facility
EDT Latitude Longitude Course Direction KTS MPH feet Rate Location/Type
Wed 11:37:18 PM 33.9464 -118.4539 263° West 155 178 1,600  Level Los Angeles Center
Wed 11:38:20 PM 33.9392 -118.5219 263° West 210 242 3,500 2,537 Climbing Los Angeles Center
Wed 11:39:21 PM 33.9178 -118.5956 251° West 228 262 6,800 2,976 Climbing Los Angeles Center
Wed 11:40:23 PM 33.8831 -118.5444 129° Southeast 257 296 9,600 2,032 Climbing Los Angeles Center
Wed 11:41:25 PM 33.9206 -118.4617 61° Northeast 291 335 11,000 1,597 Climbing Los Angeles Center
Wed 11:42:27 PM 33.9714 -118.3661 57° Northeast 355 409 12,900 2,146 Climbing Los Angeles Center
Wed 11:43:28 PM 34.0314 -118.2589 56° Northeast 378 435 15,400 2,341 Climbing Los Angeles Center
Wed 11:44:30 PM 34.0967 -118.1439 56° Northeast 408 470 17,700 2,419 Climbing Los Angeles Center
Wed 11:45:32 PM 34.1775 -118.0011 56° Northeast 426 490 20,400 2,323 Climbing Los Angeles Center
Wed 11:46:34 PM 34.2467 -117.8767 56° Northeast 441 507 22,500 1,935 Climbing Los Angeles Center
Wed 11:47:36 PM 34.3181 -117.7500 56° Northeast 454 522 24,400 1,805 Climbing Los Angeles Center
Wed 11:48:37 PM 34.4072 -117.6181 51° Northeast 472 543 26,200 1,561 Climbing Los Angeles Center
Wed 11:49:39 PM 34.4944 -117.4917 50° Northeast 487 560 27,600 1,306 Climbing Los Angeles Center
Wed 11:50:41 PM 34.5856 -117.3617 50° Northeast 503 579 28,900 1,268 Climbing Los Angeles Center
Wed 11:51:42 PM 34.6783 -117.2286 50° Northeast 519 597 30,200 1,317 Climbing Los Angeles Center
Wed 11:52:44 PM 34.7725 -117.0933 50° Northeast 527 606 31,600 1,694 Climbing Los Angeles Center
Wed 11:53:46 PM 34.8842 -116.9311 50° Northeast 526 605 33,700 1,742 Climbing Los Angeles Center
Wed 11:54:48 PM 34.9747 -116.7986 50° Northeast 514 592 35,200 1,220 Climbing Los Angeles Center
Wed 11:55:49 PM 35.0669 -116.6661 50° Northeast 514 592 36,200 878 Climbing Los Angeles Center
Wed 11:56:51 PM 35.1578 -116.5339 50° Northeast 513 590 37,000 387 Climbing Los Angeles Center
Wed 11:57:53 PM 35.2483 -116.4019 50° Northeast 510 587 37,000  Level Los Angeles Center
Wed 11:58:55 PM 35.3414 -116.2642 50° Northeast 511 588 37,000  Level Los Angeles Center
Wed 11:59:56 PM 35.4269 -116.1347 51° Northeast 507 583 37,000  Level Los Angeles Center
Thu 12:00:58 AM 35.5358 -115.9731 50° Northeast 512 589 37,000  Level Los Angeles Center
Thu 12:02:00 AM 35.6314 -115.8347 50° Northeast 516 594 37,000  Level Los Angeles Center
Thu 12:03:01 AM 35.7150 -115.6969 53° Northeast 507 583 37,000  Level Los Angeles Center
Thu 12:04:03 AM 35.7742 -115.5414 65° Northeast 506 582 37,000  Level Los Angeles Center
Thu 12:05:05 AM 35.8344 -115.3842 65° Northeast 508 585 37,000  Level Los Angeles Center
Thu 12:06:06 AM 35.8944 -115.2272 65° Northeast 510 587 37,000  Level Los Angeles Center
Thu 12:07:08 AM 35.9625 -115.0397 66° East 507 583 37,000  Level Los Angeles Center
Thu 12:08:10 AM 36.0219 -114.8839 65° Northeast 505 581 37,000  Level Los Angeles Center
Thu 12:09:12 AM 36.0797 -114.7275 65° Northeast 504 580 37,000  Level Los Angeles Center
Thu 12:10:13 AM 36.1381 -114.5719 65° Northeast 501 577 37,000  Level Los Angeles Center
Thu 12:11:15 AM 36.1956 -114.4175 65° Northeast 497 572 37,000  Level Los Angeles Center
Thu 12:12:17 AM 36.2522 -114.2625 66° East 496 571 37,000  Level Los Angeles Center
Thu 12:13:18 AM 36.3214 -114.0767 65° Northeast 495 570 37,000  Level Los Angeles Center
Thu 12:14:20 AM 36.3775 -113.9222 66° East 494 568 37,000  Level Los Angeles Center
Thu 12:15:21 AM 36.4333 -113.7686 66° East 491 565 37,000  Level Los Angeles Center
Thu 12:16:23 AM 36.4894 -113.6150 66° East 488 562 37,000  Level Los Angeles Center
Thu 12:17:25 AM 36.5450 -113.4578 66° East 486 559 37,000  Level Los Angeles Center
Thu 12:18:26 AM 36.6006 -113.3044 66° East 488 562 37,000  Level Los Angeles Center
Thu 12:19:28 AM 36.6539 -113.1522 66° East 484 557 37,000  Level Los Angeles Center
Thu 12:20:29 AM 36.7089 -112.9986 66° East 487 560 37,000  Level Los Angeles Center
Thu 12:21:31 AM 36.7631 -112.8433 66° East 490 564 37,000  Level Los Angeles Center
Thu 12:22:32 AM 36.8294 -112.6550 66° East 496 571 37,000  Level Los Angeles Center
Thu 12:23:34 AM 36.8831 -112.5003 67° East 493 567 37,000  Level Los Angeles Center
Thu 12:24:35 AM 36.9375 -112.3456 66° East 490 564 37,000  Level Los Angeles Center
Thu 12:25:37 AM 36.9908 -112.1911 67° East 489 563 37,000  Level Los Angeles Center
Thu 12:26:38 AM 37.0444 -112.0342 67° East 493 567 37,000  Level Los Angeles Center
Thu 12:27:40 AM 37.0975 -111.8789 67° East 489 563 37,000  Level Los Angeles Center
Thu 12:28:41 AM 37.1625 -111.6906 67° East 492 566 37,000  Level Los Angeles Center
Thu 12:29:34 AM 37.2036 -111.5631 68° East 492 566 37,000  Level Denver Center
Thu 12:30:35 AM 37.2578 -111.4047 67° East 497 572 37,000  Level Denver Center
Thu 12:31:36 AM 37.3103 -111.2450 68° East 497 572 37,000  Level Denver Center
Thu 12:32:37 AM 37.3636 -111.0875 67° East 492 566 37,000  Level Denver Center
Thu 12:33:38 AM 37.4158 -110.9297 67° East 491 565 37,000  Level Denver Center
Thu 12:34:39 AM 37.4667 -110.7736 68° East 485 558 37,000  Level Denver Center
Thu 12:35:40 AM 37.5289 -110.5842 67° East 489 563 37,000  Level Denver Center
Thu 12:36:41 AM 37.5747 -110.4389 68° East 490 564 37,000  Level Denver Center
Thu 12:37:42 AM 37.6167 -110.3114 67° East 493 567 37,000  Level Denver Center
Thu 12:38:43 AM 37.6819 -110.1081 68° East 489 563 37,000  Level Denver Center
Thu 12:39:45 AM 37.7300 -109.9544 68° East 490 564 37,000  Level Denver Center
Thu 12:40:46 AM 37.7872 -109.7756 68° East 490 564 37,000  Level Denver Center
Thu 12:41:46 AM 37.8364 -109.6228 68° East 490 564 37,000  Level Denver Center
Thu 12:42:47 AM 37.8831 -109.4703 69° East 487 560 37,000  Level Denver Center
Thu 12:43:48 AM 37.9389 -109.2933 68° East 485 558 37,000  Level Denver Center
Thu 12:44:49 AM 37.9864 -109.1408 68° East 484 557 37,000  Level Denver Center
Thu 12:45:50 AM 38.0328 -108.9894 69° East 482 555 37,000  Level Denver Center
Thu 12:46:51 AM 38.0872 -108.8072 69° East 488 562 37,000  Level Denver Center
Thu 12:47:52 AM 38.1342 -108.6547 69° East 487 560 37,000  Level Denver Center
Thu 12:48:53 AM 38.1800 -108.5039 69° East 482 555 37,000  Level Denver Center
Thu 12:49:54 AM 38.2344 -108.3233 69° East 488 562 37,000  Level Denver Center
Thu 12:50:55 AM 38.2808 -108.1681 69° East 490 564 37,000  Level Denver Center
Thu 12:51:56 AM 38.3275 -108.0139 69° East 490 564 37,000  Level Denver Center
Thu 12:52:56 AM 38.3803 -107.8344 69° East 487 560 37,000  Level Denver Center
Thu 12:53:57 AM 38.4267 -107.6775 69° East 493 567 37,000  Level Denver Center
Thu 12:54:58 AM 38.4817 -107.5256 65° Northeast 494 568 37,000  Level Denver Center
Thu 12:55:59 AM 38.5583 -107.3556 60° Northeast 496 571 37,000  Level Denver Center
Thu 12:56:59 AM 38.6233 -107.2097 60° Northeast 494 568 37,000  Level Denver Center
Thu 12:58:00 AM 38.6972 -107.0447 60° Northeast 498 573 37,000  Level Denver Center
Thu 12:59:01 AM 38.7647 -106.8917 60° Northeast 497 572 37,000 -148 Level Denver Center
Thu 01:00:02 AM 38.8322 -106.7400 60° Northeast 492 566 36,700 -645 Descending Denver Center
Thu 01:01:02 AM 38.9061 -106.5767 60° Northeast 489 563 35,700 -1,041 Descending Denver Center
Thu 01:02:03 AM 38.9606 -106.4542 60° Northeast 494 568 34,600 -1,770 Descending Denver Center
Thu 01:03:04 AM 39.0378 -106.2844 60° Northeast 494 568 32,100 -2,311 Descending Denver Center
Thu 01:04:05 AM 39.1097 -106.1236 60° Northeast 483 556 29,900 -2,083 Descending Denver Center
Thu 01:05:05 AM 39.1736 -105.9794 60° Northeast 468 539 27,900 -1,884 Descending Denver Center
Thu 01:06:06 AM 39.2347 -105.8436 60° Northeast 443 510 26,100 -1,721 Descending Denver Center
Thu 01:07:07 AM 39.2914 -105.7147 60° Northeast 417 480 24,400 -1,534 Descending Denver Center
Thu 01:08:19 AM 39.3481 -105.5875 60° Northeast 409 471 22,700 -1,759 Descending Denver Center
Thu 01:09:20 AM 39.4192 -105.4336 59° Northeast 397 457 20,500 -1,869 Descending Denver Center
Thu 01:10:21 AM 39.4797 -105.3211 55° Northeast 379 436 18,900 -1,587 Descending Denver Center
Thu 01:11:21 AM 39.5367 -105.2136 55° Northeast 367 422 17,300 -942 Descending Denver Center
Thu 01:12:22 AM 39.5906 -105.1081 56° Northeast 351 404 17,000 -793 Descending Denver Center
Thu 01:13:22 AM 39.6442 -105.0075 55° Northeast 340 391 15,700 -1,388 Descending Denver Center
Thu 01:14:23 AM 39.6944 -104.9089 56° Northeast 330 380 14,200 -1,488 Descending Denver Center
Thu 01:15:23 AM 39.7667 -104.8406 36° Northeast 341 392 12,700 -893 Descending Denver Center
Thu 01:16:24 AM 39.8583 -104.8394 North 319 367 12,400 -639 Descending Denver Center
Thu 01:17:25 AM 39.9414 -104.8383 North 296 341 11,400 -793 Descending Denver Center
Thu 01:18:25 AM 40.0175 -104.8406 359° North 273 314 10,800 -893 Descending Denver Center
Thu 01:19:26 AM 40.0722 -104.8053 26° Northeast 221 254 9,600 -1,091 Descending Denver Center
Thu 01:20:26 AM 40.0533 -104.7422 111° Southeast 188 216 8,600 -942 Descending Denver Center
Thu 01:21:27 AM 40.0181 -104.6931 133° Southeast 185 213 7,700 -893 Descending Denver Center
Thu 01:22:27 AM 39.9742 -104.6867 174° South 162 186 6,800 -893 Descending Denver Center
Thu 01:23:28 AM 39.9283 -104.6867 180° South 165 190 5,900 -744 Descending Denver Center
Thu 01:24:28 AM 39.8867 -104.6869 180° South 168 193 5,300 -600 Descending Denver Center

Login

Don't have an account? Register now (free) for customized features, flight alerts, and more!